Time;durP1;ratioP1;P1;durP2;ratioP2;P2;SDS_P1;SDS_P2;PMS_P1;PMS_P2;Temp;Humidity;BMP_temperature;BMP_pressure;BME280_temperature;BME280_humidity;BME280_pressure;Samples;Min_cycle;Max_cycle;Signal;HPM_P1;HPM_P2
2022/09/16 00:01:10;;;;;;;;;;;;;;;;;;5046853;28;19912;-58
2022/09/16 00:03:37;;;;;;;;;;;;;;;;;;5045990;28;19905;-58
2022/09/16 00:06:04;;;;;;;;;;;;;;;;;;5046560;28;19905;-59
2022/09/16 00:08:30;;;;;;;;;;;;;;;;;;5046218;28;20005;-59
2022/09/16 00:10:57;;;;;;;;;;;;;;;;;;5046420;28;19912;-58
2022/09/16 00:13:23;;;;;;;;;;;;;;;;;;5046948;28;19913;-60
2022/09/16 00:15:52;;;;;;;;;;;;;;;;;;5046316;28;19913;-58
2022/09/16 00:18:19;;;;;;;;;;;;;;;;;;5045996;28;19948;-58
2022/09/16 00:20:47;;;;;;;;;;;;;;;;;;5045987;28;19994;-59
2022/09/16 00:23:13;;;;;;;;;;;;;;;;;;5046150;28;19947;-58
2022/09/16 00:25:40;;;;;;;;;;;;;;;;;;5046077;28;19979;-59
2022/09/16 00:28:07;;;;;;;;;;;;;;;;;;5046251;28;19904;-60
2022/09/16 00:30:34;;;;;;;;;;;;;;;;;;5045863;28;19909;-60
2022/09/16 00:33:01;;;;;;;;;;;;;;;;;;5045395;28;19917;-61
2022/09/16 00:35:28;;;;;;;;;;;;;;;;;;5045981;28;19908;-60
2022/09/16 00:37:53;;;;;;;;;;;;;;;;;;5046447;28;19981;-59
2022/09/16 00:40:19;;;;;;;;;;;;;;;;;;5046334;28;19916;-59
2022/09/16 00:42:45;;;;;;;;;;;;;;;;;;5045478;28;19905;-60
2022/09/16 00:45:11;;;;;;;;;;;;;;;;;;5045833;28;20422;-60
2022/09/16 00:47:37;;;;;;;;;;;;;;;;;;5045314;28;19912;-59
2022/09/16 00:50:03;;;;;;;;;;;;;;;;;;5045762;28;19912;-59
2022/09/16 00:52:30;;;;;;;;;;;;;;;;;;5045445;28;19908;-59
2022/09/16 00:54:56;;;;;;;;;;;;;;;;;;5045771;28;19905;-59
2022/09/16 00:57:23;;;;;;;;;;;;;;;;;;5045947;28;19915;-59
2022/09/16 00:59:48;;;;;;;;;;;;;;;;;;5045438;28;19904;-59
2022/09/16 01:02:14;;;;;;;;;;;;;;;;;;5045477;28;20008;-60
2022/09/16 01:04:40;;;;;;;;;;;;;;;;;;5045193;28;19909;-59
2022/09/16 01:07:06;;;;;;;;;;;;;;;;;;5045474;28;20003;-59
2022/09/16 01:09:32;;;;;;;;;;;;;;;;;;5045431;28;19950;-59
2022/09/16 01:11:58;;;;;;;;;;;;;;;;;;5045260;28;19959;-60
2022/09/16 01:17:09;;;;;;;;;;;;;;;;;;5045227;28;19911;-59
2022/09/16 01:19:35;;;;;;;;;;;;;;;;;;5045372;28;20431;-59
2022/09/16 01:22:01;;;;;;;;;;;;;;;;;;5045252;28;19905;-60
2022/09/16 01:24:28;;;;;;;;;;;;;;;;;;5045104;28;19912;-59
2022/09/16 01:26:54;;;;;;;;;;;;;;;;;;5045751;28;19905;-59
2022/09/16 01:29:20;;;;;;;;;;;;;;;;;;5045652;28;19994;-59
2022/09/16 01:31:46;;;;;;;;;;;;;;;;;;5044938;28;19908;-59
2022/09/16 01:34:13;;;;;;;;;;;;;;;;;;5045069;28;19909;-59
2022/09/16 01:36:38;;;;;;;;;;;;;;;;;;5044880;28;19905;-59
2022/09/16 01:39:06;;;;;;;;;;;;;;;;;;5045200;28;19908;-58
2022/09/16 01:41:33;;;;;;;;;;;;;;;;;;5044803;28;19905;-59
2022/09/16 01:43:59;;;;;;;;;;;;;;;;;;5045444;28;19955;-59
2022/09/16 01:46:26;;;;;;;;;;;;;;;;;;5047031;28;20296;-59
2022/09/16 01:48:52;;;;;;;;;;;;;;;;;;5049776;28;19900;-59
2022/09/16 01:51:19;;;;;;;;;;;;;;;;;;5048976;28;19935;-59
2022/09/16 01:53:45;;;;;;;;;;;;;;;;;;5048738;28;19909;-59
2022/09/16 01:56:12;;;;;;;;;;;;;;;;;;5048706;28;19950;-59
2022/09/16 01:58:38;;;;;;;;;;;;;;;;;;5047501;28;20391;-59
2022/09/16 02:01:04;;;;;;;;;;;;;;;;;;5049042;28;20375;-59
2022/09/16 02:03:30;;;;;;;;;;;;;;;;;;5047899;28;19905;-59
2022/09/16 02:05:56;;;;;;;;;;;;;;;;;;5049082;28;19912;-59
2022/09/16 02:08:22;;;;;;;;;;;;;;;;;;5031424;28;19959;-59
2022/09/16 02:10:48;;;;;;;;;;;;;;;;;;5048300;28;20419;-59
2022/09/16 02:13:14;;;;;;;;;;;;;;;;;;5048369;28;19922;-59
2022/09/16 02:15:40;;;;;;;;;;;;;;;;;;5047959;28;20384;-59
2022/09/16 02:18:06;;;;;;;;;;;;;;;;;;5048385;28;20168;-59
2022/09/16 02:20:32;;;;;;;;;;;;;;;;;;5048120;28;20505;-59
2022/09/16 02:22:58;;;;;;;;;;;;;;;;;;5048353;28;19909;-59
2022/09/16 02:25:24;;;;;;;;;;;;;;;;;;5048792;28;19905;-59
2022/09/16 02:27:50;;;;;;;;;;;;;;;;;;5048077;28;20297;-59
2022/09/16 02:30:17;;;;;;;;;;;;;;;;;;5048362;28;20328;-59
2022/09/16 02:32:43;;;;;;;;;;;;;;;;;;5047965;28;20273;-59
2022/09/16 02:35:09;;;;;;;;;;;;;;;;;;5047991;28;19912;-59
2022/09/16 02:37:35;;;;;;;;;;;;;;;;;;5047826;28;19909;-58
2022/09/16 02:40:04;;;;;;;;;;;;;;;;;;5047924;28;20342;-58
2022/09/16 02:42:30;;;;;;;;;;;;;;;;;;5047833;28;20699;-58
2022/09/16 02:44:56;;;;;;;;;;;;;;;;;;5047832;28;19916;-58
2022/09/16 02:47:23;;;;;;;;;;;;;;;;;;5048453;28;19911;-58
2022/09/16 02:49:50;;;;;;;;;;;;;;;;;;5029854;28;19936;-57
2022/09/16 02:52:16;;;;;;;;;;;;;;;;;;5048231;28;20556;-58
2022/09/16 02:54:41;;;;;;;;;;;;;;;;;;5047134;28;20395;-58
2022/09/16 02:57:07;;;;;;;;;;;;;;;;;;5047659;28;19909;-58
2022/09/16 02:59:33;;;;;;;;;;;;;;;;;;5047332;28;19905;-58
2022/09/16 03:02:00;;;;;;;;;;;;;;;;;;5047640;28;19954;-58
2022/09/16 03:04:26;;;;;;;;;;;;;;;;;;5047354;28;19935;-58
2022/09/16 03:06:52;;;;;;;;;;;;;;;;;;5048241;28;19909;-58
2022/09/16 03:09:22;;;;;;;;;;;;;;;;;;5047310;28;19971;-58
2022/09/16 03:11:48;;;;;;;;;;;;;;;;;;5047529;28;19916;-58
2022/09/16 03:14:15;;;;;;;;;;;;;;;;;;5047433;28;20492;-58
2022/09/16 03:16:41;;;;;;;;;;;;;;;;;;5046312;28;19980;-58
2022/09/16 03:19:08;;;;;;;;;;;;;;;;;;5028968;28;19912;-57
2022/09/16 03:21:35;;;;;;;;;;;;;;;;;;5047428;28;19905;-58
2022/09/16 03:24:02;;;;;;;;;;;;;;;;;;5046828;28;20338;-58
2022/09/16 03:26:28;;;;;;;;;;;;;;;;;;5046922;28;19935;-58
2022/09/16 03:28:54;;;;;;;;;;;;;;;;;;5047503;28;19904;-58
2022/09/16 03:31:20;;;;;;;;;;;;;;;;;;5046768;28;20445;-58
2022/09/16 03:33:47;;;;;;;;;;;;;;;;;;5046858;28;19913;-57
2022/09/16 03:36:13;;;;;;;;;;;;;;;;;;5046844;28;19958;-58
2022/09/16 03:38:39;;;;;;;;;;;;;;;;;;5046606;28;19917;-58
2022/09/16 03:41:05;;;;;;;;;;;;;;;;;;5046538;28;19909;-58
2022/09/16 03:43:31;;;;;;;;;;;;;;;;;;5047000;28;19909;-58
2022/09/16 03:45:57;;;;;;;;;;;;;;;;;;5046286;28;19912;-58
2022/09/16 03:48:23;;;;;;;;;;;;;;;;;;5047156;28;20382;-58
2022/09/16 03:50:50;;;;;;;;;;;;;;;;;;5046569;28;19905;-58
2022/09/16 03:53:15;;;;;;;;;;;;;;;;;;5046474;28;19908;-58
2022/09/16 03:55:41;;;;;;;;;;;;;;;;;;5046799;28;20065;-57
2022/09/16 03:58:08;;;;;;;;;;;;;;;;;;5046199;28;19909;-58
2022/09/16 04:00:36;;;;;;;;;;;;;;;;;;5046428;28;19904;-58
2022/09/16 04:03:02;;;;;;;;;;;;;;;;;;5046081;28;20334;-58
2022/09/16 04:05:29;;;;;;;;;;;;;;;;;;5046214;28;19993;-58
2022/09/16 04:07:56;;;;;;;;;;;;;;;;;;5045853;28;19993;-57
2022/09/16 04:10:22;;;;;;;;;;;;;;;;;;5046698;28;19904;-57
2022/09/16 04:12:49;;;;;;;;;;;;;;;;;;5045780;28;20159;-58
2022/09/16 04:15:15;;;;;;;;;;;;;;;;;;5045709;28;19911;-57
2022/09/16 04:17:41;;;;;;;;;;;;;;;;;;5046093;28;19908;-58
2022/09/16 04:20:08;;;;;;;;;;;;;;;;;;5045667;28;19916;-58
2022/09/16 04:22:35;;;;;;;;;;;;;;;;;;5045947;28;20517;-58
2022/09/16 04:25:02;;;;;;;;;;;;;;;;;;5027686;28;19912;-58
2022/09/16 04:27:29;;;;;;;;;;;;;;;;;;5045773;28;20225;-58
2022/09/16 04:29:56;;;;;;;;;;;;;;;;;;5046236;28;19936;-58
2022/09/16 04:32:23;;;;;;;;;;;;;;;;;;5046172;28;20003;-58
2022/09/16 04:34:49;;;;;;;;;;;;;;;;;;5045269;28;19905;-58
2022/09/16 04:37:15;;;;;;;;;;;;;;;;;;5045594;28;19966;-58
2022/09/16 04:39:41;;;;;;;;;;;;;;;;;;5045699;28;19904;-58
2022/09/16 04:42:06;;;;;;;;;;;;;;;;;;5045552;28;19909;-58
2022/09/16 04:44:32;;;;;;;;;;;;;;;;;;5045120;28;20427;-57
2022/09/16 04:46:58;;;;;;;;;;;;;;;;;;5045387;28;19914;-58
2022/09/16 04:49:24;;;;;;;;;;;;;;;;;;5045917;28;19912;-58
2022/09/16 04:51:51;;;;;;;;;;;;;;;;;;5045144;28;19905;-58
2022/09/16 04:54:16;;;;;;;;;;;;;;;;;;5045347;28;20020;-58
2022/09/16 04:56:42;;;;;;;;;;;;;;;;;;5045093;28;20003;-58
2022/09/16 04:59:08;;;;;;;;;;;;;;;;;;5044778;28;20448;-58
2022/09/16 05:01:35;;;;;;;;;;;;;;;;;;5045343;28;19905;-58
2022/09/16 05:04:01;;;;;;;;;;;;;;;;;;5045357;28;19904;-58
2022/09/16 05:06:27;;;;;;;;;;;;;;;;;;5045228;28;20179;-58
2022/09/16 05:08:54;;;;;;;;;;;;;;;;;;5045645;28;19905;-58
2022/09/16 05:11:20;;;;;;;;;;;;;;;;;;5045211;28;19970;-57
2022/09/16 05:13:46;;;;;;;;;;;;;;;;;;5044978;28;19908;-57
2022/09/16 05:16:13;;;;;;;;;;;;;;;;;;5044732;28;19913;-58
2022/09/16 05:18:39;;;;;;;;;;;;;;;;;;5045941;28;20046;-57
2022/09/16 05:21:05;;;;;;;;;;;;;;;;;;5051976;28;19905;-57
2022/09/16 05:23:31;;;;;;;;;;;;;;;;;;5053110;28;19958;-57
2022/09/16 05:25:57;;;;;;;;;;;;;;;;;;5052682;28;19915;-57
2022/09/16 05:28:23;;;;;;;;;;;;;;;;;;5053851;28;19904;-57
2022/09/16 05:30:49;;;;;;;;;;;;;;;;;;5052794;28;20343;-57
2022/09/16 05:33:16;;;;;;;;;;;;;;;;;;5053227;28;19905;-57
2022/09/16 05:35:42;;;;;;;;;;;;;;;;;;5053033;28;20722;-57
2022/09/16 05:38:08;;;;;;;;;;;;;;;;;;5053091;28;19912;-58
2022/09/16 05:40:34;;;;;;;;;;;;;;;;;;5035045;28;19911;-57
2022/09/16 05:43:00;;;;;;;;;;;;;;;;;;5052786;28;20424;-57
2022/09/16 05:45:26;;;;;;;;;;;;;;;;;;5053092;28;19931;-57
2022/09/16 05:47:52;;;;;;;;;;;;;;;;;;5053276;28;19905;-57
2022/09/16 05:50:17;;;;;;;;;;;;;;;;;;5052680;28;19912;-57
2022/09/16 05:52:43;;;;;;;;;;;;;;;;;;5052466;28;19909;-57
2022/09/16 05:55:09;;;;;;;;;;;;;;;;;;5052946;28;19978;-57
2022/09/16 05:57:35;;;;;;;;;;;;;;;;;;5051947;28;19916;-58
2022/09/16 06:00:01;;;;;;;;;;;;;;;;;;5051041;28;19951;-57
2022/09/16 06:02:27;;;;;;;;;;;;;;;;;;5050561;28;19936;-57
2022/09/16 06:04:53;;;;;;;;;;;;;;;;;;5050947;28;20327;-57
2022/09/16 06:07:19;;;;;;;;;;;;;;;;;;5050168;28;19913;-57
2022/09/16 06:09:46;;;;;;;;;;;;;;;;;;5049905;28;19967;-58
2022/09/16 06:12:12;;;;;;;;;;;;;;;;;;5050833;28;19943;-58
2022/09/16 06:14:38;;;;;;;;;;;;;;;;;;5051812;28;19912;-57
2022/09/16 06:17:04;;;;;;;;;;;;;;;;;;5052106;28;19904;-57
2022/09/16 06:19:30;;;;;;;;;;;;;;;;;;5052217;28;19912;-57
2022/09/16 06:21:55;;;;;;;;;;;;;;;;;;5051013;28;19904;-57
2022/09/16 06:24:22;;;;;;;;;;;;;;;;;;5051024;28;19912;-57
2022/09/16 06:26:49;;;;;;;;;;;;;;;;;;5050295;28;20347;-57
2022/09/16 06:29:15;;;;;;;;;;;;;;;;;;5050337;28;19995;-57
2022/09/16 06:31:42;;;;;;;;;;;;;;;;;;5047755;28;20467;-58
2022/09/16 06:34:09;;;;;;;;;;;;;;;;;;5046973;28;19954;-58
2022/09/16 06:36:35;;;;;;;;;;;;;;;;;;5047277;28;19904;-57
2022/09/16 06:39:03;;;;;;;;;;;;;;;;;;5046877;28;19909;-57
2022/09/16 06:41:28;;;;;;;;;;;;;;;;;;5046977;28;20385;-57
2022/09/16 06:43:54;;;;;;;;;;;;;;;;;;5047289;28;19995;-57
2022/09/16 06:46:21;;;;;;;;;;;;;;;;;;5046850;28;19904;-57
2022/09/16 06:48:49;;;;;;;;;;;;;;;;;;5046825;28;19970;-57
2022/09/16 06:51:15;;;;;;;;;;;;;;;;;;5047108;28;20269;-58
2022/09/16 06:53:42;;;;;;;;;;;;;;;;;;5047013;28;19904;-58
2022/09/16 06:56:09;;;;;;;;;;;;;;;;;;5046502;28;19995;-58
2022/09/16 06:58:35;;;;;;;;;;;;;;;;;;5046541;28;20427;-58
2022/09/16 07:01:01;;;;;;;;;;;;;;;;;;5046792;28;19993;-57
2022/09/16 07:03:28;;;;;;;;;;;;;;;;;;5046881;28;19911;-57
2022/09/16 07:05:55;;;;;;;;;;;;;;;;;;5028938;28;19909;-57
2022/09/16 07:08:22;;;;;;;;;;;;;;;;;;5047185;28;19905;-57
2022/09/16 07:10:48;;;;;;;;;;;;;;;;;;5046186;28;20476;-57
2022/09/16 07:13:15;;;;;;;;;;;;;;;;;;5046238;28;19999;-57
2022/09/16 07:15:41;;;;;;;;;;;;;;;;;;5046281;28;19908;-58
2022/09/16 07:18:08;;;;;;;;;;;;;;;;;;5028328;28;19909;-58
2022/09/16 07:20:34;;;;;;;;;;;;;;;;;;5046416;28;19905;-57
2022/09/16 07:23:00;;;;;;;;;;;;;;;;;;5046156;28;19909;-58
2022/09/16 07:25:27;;;;;;;;;;;;;;;;;;5046117;28;19905;-58
2022/09/16 07:27:53;;;;;;;;;;;;;;;;;;5028617;28;20432;-58
2022/09/16 07:30:18;;;;;;;;;;;;;;;;;;5045868;28;19913;-57
2022/09/16 07:32:44;;;;;;;;;;;;;;;;;;5046095;28;19951;-57
2022/09/16 07:35:11;;;;;;;;;;;;;;;;;;5046084;28;20339;-58
2022/09/16 07:37:37;;;;;;;;;;;;;;;;;;5046264;28;20023;-58
2022/09/16 07:40:03;;;;;;;;;;;;;;;;;;5046348;28;20414;-57
2022/09/16 07:42:29;;;;;;;;;;;;;;;;;;5045571;28;20272;-58
2022/09/16 07:44:55;;;;;;;;;;;;;;;;;;5045463;28;19966;-57
2022/09/16 07:47:21;;;;;;;;;;;;;;;;;;5046093;28;20386;-57
2022/09/16 07:49:47;;;;;;;;;;;;;;;;;;5045739;28;19905;-57
2022/09/16 07:52:15;;;;;;;;;;;;;;;;;;5046143;28;20323;-57
2022/09/16 07:54:41;;;;;;;;;;;;;;;;;;5044266;28;20143;-58
2022/09/16 07:57:07;;;;;;;;;;;;;;;;;;5046998;28;19905;-57
2022/09/16 07:59:33;;;;;;;;;;;;;;;;;;5046703;28;20209;-57
2022/09/16 08:01:59;;;;;;;;;;;;;;;;;;5045055;28;19913;-58
2022/09/16 08:04:25;;;;;;;;;;;;;;;;;;5045457;28;19951;-57
2022/09/16 08:06:51;;;;;;;;;;;;;;;;;;5044763;28;19913;-57
2022/09/16 08:09:17;;;;;;;;;;;;;;;;;;5046091;28;19916;-57
2022/09/16 08:11:43;;;;;;;;;;;;;;;;;;5047191;28;19934;-57
2022/09/16 08:14:09;;;;;;;;;;;;;;;;;;5047208;28;20525;-57
2022/09/16 08:16:35;;;;;;;;;;;;;;;;;;5044459;28;19995;-57
2022/09/16 08:19:01;;;;;;;;;;;;;;;;;;5045794;28;20328;-57
2022/09/16 08:21:28;;;;;;;;;;;;;;;;;;5046650;28;19916;-57
2022/09/16 08:23:54;;;;;;;;;;;;;;;;;;5044617;28;19908;-58
2022/09/16 08:26:21;;;;;;;;;;;;;;;;;;5044973;28;20334;-57
2022/09/16 08:28:47;;;;;;;;;;;;;;;;;;5040383;28;20003;-57
2022/09/16 08:31:14;;;;;;;;;;;;;;;;;;5046182;28;19914;-58
2022/09/16 08:33:41;;;;;;;;;;;;;;;;;;5045035;28;20335;-57
2022/09/16 08:36:07;;;;;;;;;;;;;;;;;;5046031;28;19949;-58
2022/09/16 08:38:33;;;;;;;;;;;;;;;;;;5045091;28;20163;-57
2022/09/16 08:41:00;;;;;;;;;;;;;;;;;;5044094;28;19924;-57
2022/09/16 08:43:26;;;;;;;;;;;;;;;;;;5043656;28;20403;-58
2022/09/16 08:45:53;;;;;;;;;;;;;;;;;;5043593;28;19990;-57
2022/09/16 08:48:19;;;;;;;;;;;;;;;;;;5044221;28;20336;-58
2022/09/16 08:50:45;;;;;;;;;;;;;;;;;;5054347;28;19915;-58
2022/09/16 08:53:11;;;;;;;;;;;;;;;;;;5042833;28;19912;-57
2022/09/16 08:55:38;;;;;;;;;;;;;;;;;;5044580;28;19904;-58
2022/09/16 08:58:04;;;;;;;;;;;;;;;;;;5043757;28;19913;-57
2022/09/16 09:00:30;;;;;;;;;;;;;;;;;;5046490;28;19943;-57
2022/09/16 09:02:57;;;;;;;;;;;;;;;;;;5043797;28;19951;-58
2022/09/16 09:05:23;;;;;;;;;;;;;;;;;;5052051;28;19915;-57
2022/09/16 09:07:49;;;;;;;;;;;;;;;;;;5051086;28;19908;-57
2022/09/16 09:10:15;;;;;;;;;;;;;;;;;;5046555;28;19905;-58
2022/09/16 09:12:41;;;;;;;;;;;;;;;;;;5045613;28;19913;-58
2022/09/16 09:15:07;;;;;;;;;;;;;;;;;;5046828;28;19911;-57
2022/09/16 09:17:34;;;;;;;;;;;;;;;;;;5045661;28;20015;-57
2022/09/16 09:20:00;;;;;;;;;;;;;;;;;;5046088;28;19963;-57
2022/09/16 09:22:26;;;;;;;;;;;;;;;;;;5045739;28;19905;-58
2022/09/16 09:24:52;;;;;;;;;;;;;;;;;;5045710;28;19954;-57
2022/09/16 09:27:18;;;;;;;;;;;;;;;;;;5045439;28;19912;-58
2022/09/16 09:29:44;;;;;;;;;;;;;;;;;;5044924;28;19951;-58
2022/09/16 09:32:11;;;;;;;;;;;;;;;;;;5045154;28;19908;-58
2022/09/16 09:34:37;;;;;;;;;;;;;;;;;;5045085;28;19915;-57
2022/09/16 09:37:03;;;;;;;;;;;;;;;;;;5051504;28;19923;-57
2022/09/16 09:39:29;;;;;;;;;;;;;;;;;;5045437;28;19917;-57
2022/09/16 09:41:55;;;;;;;;;;;;;;;;;;5046664;28;19916;-58
2022/09/16 09:44:21;;;;;;;;;;;;;;;;;;5045677;28;19905;-57
2022/09/16 09:46:47;;;;;;;;;;;;;;;;;;5044678;28;19909;-58
2022/09/16 09:49:13;;;;;;;;;;;;;;;;;;5044167;28;20082;-58
2022/09/16 09:51:39;;;;;;;;;;;;;;;;;;5045243;28;20000;-58
2022/09/16 09:54:06;;;;;;;;;;;;;;;;;;5038665;28;19966;-57
2022/09/16 09:56:32;;;;;;;;;;;;;;;;;;5045375;28;20380;-58
2022/09/16 09:58:59;;;;;;;;;;;;;;;;;;5043061;28;19908;-57
2022/09/16 10:01:25;;;;;;;;;;;;;;;;;;5044843;28;19913;-58
2022/09/16 10:03:50;;;;;;;;;;;;;;;;;;5043521;28;19909;-58
2022/09/16 10:06:18;;;;;;;;;;;;;;;;;;5045374;28;19928;-57
2022/09/16 10:08:45;;;;;;;;;;;;;;;;;;5047801;28;19915;-57
2022/09/16 10:11:10;;;;;;;;;;;;;;;;;;5047948;28;19940;-57
2022/09/16 10:13:36;;;;;;;;;;;;;;;;;;5047471;28;19908;-57
2022/09/16 10:16:02;;;;;;;;;;;;;;;;;;5048516;28;19943;-58
2022/09/16 10:18:28;;;;;;;;;;;;;;;;;;5046491;28;20073;-58
2022/09/16 10:20:54;;;;;;;;;;;;;;;;;;5048571;28;19908;-58
2022/09/16 10:23:20;;;;;;;;;;;;;;;;;;5047212;28;20394;-57
2022/09/16 10:25:46;;;;;;;;;;;;;;;;;;5048466;28;19912;-58
2022/09/16 10:28:13;;;;;;;;;;;;;;;;;;5043932;28;19920;-58
2022/09/16 10:30:40;;;;;;;;;;;;;;;;;;5046058;28;19915;-58
2022/09/16 10:33:06;;;;;;;;;;;;;;;;;;5046457;28;19912;-57
2022/09/16 10:35:32;;;;;;;;;;;;;;;;;;5048234;28;19916;-58
2022/09/16 10:37:59;;;;;;;;;;;;;;;;;;5046184;28;20360;-58
2022/09/16 10:40:26;;;;;;;;;;;;;;;;;;5047795;28;19920;-58
2022/09/16 10:42:52;;;;;;;;;;;;;;;;;;5041354;28;20386;-58
2022/09/16 10:45:18;;;;;;;;;;;;;;;;;;5048913;28;19913;-57
2022/09/16 10:47:44;;;;;;;;;;;;;;;;;;5048271;28;19905;-58
2022/09/16 10:50:10;;;;;;;;;;;;;;;;;;5048680;28;19924;-58
2022/09/16 10:52:36;;;;;;;;;;;;;;;;;;5048274;28;19912;-60
2022/09/16 10:55:02;;;;;;;;;;;;;;;;;;5049093;28;19958;-60
2022/09/16 10:57:28;;;;;;;;;;;;;;;;;;5047876;28;19951;-60
2022/09/16 10:59:54;;;;;;;;;;;;;;;;;;5048073;28;20002;-64
2022/09/16 11:02:20;;;;;;;;;;;;;;;;;;5048843;28;19969;-65
2022/09/16 11:04:46;;;;;;;;;;;;;;;;;;5048023;28;19931;-66
2022/09/16 11:07:11;;;;;;;;;;;;;;;;;;5030218;28;19908;-65
2022/09/16 11:09:37;;;;;;;;;;;;;;;;;;5047211;28;19905;-65
2022/09/16 11:12:03;;;;;;;;;;;;;;;;;;5047222;28;19981;-64
2022/09/16 11:14:29;;;;;;;;;;;;;;;;;;5047580;28;19912;-65
2022/09/16 11:16:55;;;;;;;;;;;;;;;;;;5047164;28;20399;-64
2022/09/16 11:19:21;;;;;;;;;;;;;;;;;;5047233;28;19924;-65
2022/09/16 11:21:47;;;;;;;;;;;;;;;;;;5047734;28;19908;-65
2022/09/16 11:24:14;;;;;;;;;;;;;;;;;;5045173;28;20050;-65
2022/09/16 11:26:40;;;;;;;;;;;;;;;;;;5045449;28;19912;-65
2022/09/16 11:29:08;;;;;;;;;;;;;;;;;;5044916;28;19911;-65
2022/09/16 11:31:34;;;;;;;;;;;;;;;;;;5041573;28;20439;-64
2022/09/16 11:34:01;;;;;;;;;;;;;;;;;;5044289;28;20066;-64
2022/09/16 11:36:26;;;;;;;;;;;;;;;;;;5045665;28;19920;-64
2022/09/16 11:38:53;;;;;;;;;;;;;;;;;;5044693;28;19915;-65
2022/09/16 11:41:20;;;;;;;;;;;;;;;;;;5047007;28;19948;-65
2022/09/16 11:43:46;;;;;;;;;;;;;;;;;;5045436;28;19906;-60
2022/09/16 11:46:12;;;;;;;;;;;;;;;;;;5027498;28;20054;-59
2022/09/16 11:48:38;;;;;;;;;;;;;;;;;;5044579;28;19909;-59
2022/09/16 11:51:04;;;;;;;;;;;;;;;;;;5045369;28;20291;-60
2022/09/16 11:53:30;;;;;;;;;;;;;;;;;;5025724;28;20231;-60
2022/09/16 11:55:56;;;;;;;;;;;;;;;;;;5046867;28;19908;-60
2022/09/16 11:58:22;;;;;;;;;;;;;;;;;;5043932;28;19919;-60
2022/09/16 12:00:48;;;;;;;;;;;;;;;;;;5046123;28;20372;-59
2022/09/16 12:03:15;;;;;;;;;;;;;;;;;;5043675;28;19915;-60
2022/09/16 12:05:41;;;;;;;;;;;;;;;;;;5026459;28;19943;-60
2022/09/16 12:08:08;;;;;;;;;;;;;;;;;;5043537;28;20384;-60
2022/09/16 12:10:34;;;;;;;;;;;;;;;;;;5044803;28;19919;-60
2022/09/16 12:13:00;;;;;;;;;;;;;;;;;;5042870;28;20004;-60
2022/09/16 12:15:26;;;;;;;;;;;;;;;;;;5044573;28;19918;-60
2022/09/16 12:17:53;;;;;;;;;;;;;;;;;;5025583;28;19999;-60
2022/09/16 12:20:19;;;;;;;;;;;;;;;;;;5044972;28;20003;-60
2022/09/16 12:22:45;;;;;;;;;;;;;;;;;;5042373;28;19967;-60
2022/09/16 12:25:11;;;;;;;;;;;;;;;;;;5042705;28;19917;-61
2022/09/16 12:27:37;;;;;;;;;;;;;;;;;;5042675;28;20399;-61
2022/09/16 12:30:04;;;;;;;;;;;;;;;;;;5042549;28;19921;-61
2022/09/16 12:32:31;;;;;;;;;;;;;;;;;;5040710;28;19916;-61
2022/09/16 12:34:57;;;;;;;;;;;;;;;;;;5043392;28;19908;-60
2022/09/16 12:37:22;;;;;;;;;;;;;;;;;;5043345;28;19905;-61
2022/09/16 12:39:48;;;;;;;;;;;;;;;;;;5044286;28;19950;-61
2022/09/16 12:42:14;;;;;;;;;;;;;;;;;;5044201;28;19911;-61
2022/09/16 12:44:41;;;;;;;;;;;;;;;;;;5043997;28;19995;-61
2022/09/16 12:47:08;;;;;;;;;;;;;;;;;;5025819;28;19992;-61
2022/09/16 12:49:36;;;;;;;;;;;;;;;;;;5043172;28;20375;-60
2022/09/16 12:52:02;;;;;;;;;;;;;;;;;;5042894;28;19912;-61
2022/09/16 12:54:27;;;;;;;;;;;;;;;;;;5024920;28;19916;-60
2022/09/16 12:56:53;;;;;;;;;;;;;;;;;;5043909;28;20385;-60
2022/09/16 12:59:20;;;;;;;;;;;;;;;;;;5044225;28;19912;-60
2022/09/16 13:01:47;;;;;;;;;;;;;;;;;;5043652;28;19912;-60
2022/09/16 13:04:13;;;;;;;;;;;;;;;;;;5043287;28;20419;-61
2022/09/16 13:06:38;;;;;;;;;;;;;;;;;;5044135;28;20011;-61
2022/09/16 13:09:05;;;;;;;;;;;;;;;;;;5043257;28;19954;-61
2022/09/16 13:11:31;;;;;;;;;;;;;;;;;;5044048;28;19920;-61
2022/09/16 13:13:58;;;;;;;;;;;;;;;;;;5042718;28;19908;-61
2022/09/16 13:16:25;;;;;;;;;;;;;;;;;;5043412;28;19917;-60
2022/09/16 13:18:51;;;;;;;;;;;;;;;;;;5042838;28;19916;-60
2022/09/16 13:21:17;;;;;;;;;;;;;;;;;;5045504;28;19904;-60
2022/09/16 13:23:44;;;;;;;;;;;;;;;;;;5042087;28;19913;-60
2022/09/16 13:26:10;;;;;;;;;;;;;;;;;;5044663;28;19916;-60
2022/09/16 13:28:36;;;;;;;;;;;;;;;;;;5043176;28;20380;-60
2022/09/16 13:31:01;;;;;;;;;;;;;;;;;;5044917;28;19912;-59
2022/09/16 13:33:28;;;;;;;;;;;;;;;;;;5038786;28;19909;-60
2022/09/16 13:35:55;;;;;;;;;;;;;;;;;;5026686;28;19959;-57
2022/09/16 13:38:21;;;;;;;;;;;;;;;;;;5043298;28;19916;-56
2022/09/16 13:40:46;;;;;;;;;;;;;;;;;;5047853;28;19931;-57
2022/09/16 13:43:12;;;;;;;;;;;;;;;;;;5049166;28;19909;-57
2022/09/16 13:45:38;;;;;;;;;;;;;;;;;;5050582;28;19904;-57
2022/09/16 13:48:04;;;;;;;;;;;;;;;;;;5048945;28;20549;-57
2022/09/16 13:50:31;;;;;;;;;;;;;;;;;;5050659;28;19935;-57
2022/09/16 13:52:57;;;;;;;;;;;;;;;;;;5048779;28;20691;-57
2022/09/16 13:55:23;;;;;;;;;;;;;;;;;;5050311;28;19905;-57
2022/09/16 13:57:49;;;;;;;;;;;;;;;;;;5049395;28;19920;-56
2022/09/16 14:00:15;;;;;;;;;;;;;;;;;;5050452;28;20376;-57
2022/09/16 14:02:41;;;;;;;;;;;;;;;;;;5049678;28;19916;-57
2022/09/16 14:05:07;;;;;;;;;;;;;;;;;;5050092;28;19908;-57
2022/09/16 14:07:33;;;;;;;;;;;;;;;;;;5049119;28;19955;-57
2022/09/16 14:09:59;;;;;;;;;;;;;;;;;;5049106;28;19911;-57
2022/09/16 14:12:25;;;;;;;;;;;;;;;;;;5047070;28;19976;-57
2022/09/16 14:14:51;;;;;;;;;;;;;;;;;;5050349;28;19995;-57
2022/09/16 14:17:17;;;;;;;;;;;;;;;;;;5049518;28;20003;-57
2022/09/16 14:19:45;;;;;;;;;;;;;;;;;;5049211;28;19908;-57
2022/09/16 14:22:11;;;;;;;;;;;;;;;;;;5054450;28;19919;-57
2022/09/16 14:24:37;;;;;;;;;;;;;;;;;;5048797;28;19909;-57
2022/09/16 14:27:03;;;;;;;;;;;;;;;;;;5049215;28;19935;-57
2022/09/16 14:29:29;;;;;;;;;;;;;;;;;;5049499;28;19911;-57
2022/09/16 14:31:55;;;;;;;;;;;;;;;;;;5049502;28;19911;-56
2022/09/16 14:34:21;;;;;;;;;;;;;;;;;;5046275;28;19912;-57
2022/09/16 14:36:48;;;;;;;;;;;;;;;;;;5049575;28;20438;-57
2022/09/16 14:39:14;;;;;;;;;;;;;;;;;;5049097;28;19908;-56
2022/09/16 14:41:40;;;;;;;;;;;;;;;;;;5049691;28;19995;-56
2022/09/16 14:44:07;;;;;;;;;;;;;;;;;;5048560;28;19992;-57
2022/09/16 14:46:33;;;;;;;;;;;;;;;;;;5049701;28;20372;-57
2022/09/16 14:48:59;;;;;;;;;;;;;;;;;;5046864;28;19904;-57
2022/09/16 14:51:25;;;;;;;;;;;;;;;;;;5049432;28;20074;-57
2022/09/16 14:53:50;;;;;;;;;;;;;;;;;;5047855;28;19954;-57
2022/09/16 14:56:16;;;;;;;;;;;;;;;;;;5047757;28;19916;-56
2022/09/16 14:58:42;;;;;;;;;;;;;;;;;;5048295;28;19912;-57
2022/09/16 15:01:08;;;;;;;;;;;;;;;;;;5048975;28;19916;-57
2022/09/16 15:03:34;;;;;;;;;;;;;;;;;;5048538;28;19905;-57
2022/09/16 15:06:01;;;;;;;;;;;;;;;;;;5048762;28;19905;-57
2022/09/16 15:08:27;;;;;;;;;;;;;;;;;;5050746;28;19953;-57
2022/09/16 15:10:53;;;;;;;;;;;;;;;;;;5049351;28;19916;-57
2022/09/16 15:13:19;;;;;;;;;;;;;;;;;;5046729;28;19943;-57
2022/09/16 15:15:45;;;;;;;;;;;;;;;;;;5049775;28;19905;-57
2022/09/16 15:18:11;;;;;;;;;;;;;;;;;;5046288;28;20015;-57
2022/09/16 15:20:37;;;;;;;;;;;;;;;;;;5039058;28;19998;-57
2022/09/16 15:23:03;;;;;;;;;;;;;;;;;;5048700;28;19904;-57
2022/09/16 15:25:33;;;;;;;;;;;;;;;;;;5066045;28;19912;-56
2022/09/16 15:27:59;;;;;;;;;;;;;;;;;;5046974;28;19909;-57
2022/09/16 15:30:25;;;;;;;;;;;;;;;;;;5029258;28;19909;-57
2022/09/16 15:32:51;;;;;;;;;;;;;;;;;;5043024;28;19915;-57
2022/09/16 15:35:18;;;;;;;;;;;;;;;;;;5042499;28;19929;-57
2022/09/16 15:37:45;;;;;;;;;;;;;;;;;;5040000;28;19904;-57
2022/09/16 15:40:11;;;;;;;;;;;;;;;;;;5047500;28;19905;-57
2022/09/16 15:42:36;;;;;;;;;;;;;;;;;;5046466;28;20530;-57
2022/09/16 15:45:02;;;;;;;;;;;;;;;;;;5046854;28;19962;-57
2022/09/16 15:47:28;;;;;;;;;;;;;;;;;;5046508;28;19999;-57
2022/09/16 15:49:55;;;;;;;;;;;;;;;;;;5046778;28;19905;-57
2022/09/16 15:52:22;;;;;;;;;;;;;;;;;;5046866;28;19915;-57
2022/09/16 15:54:49;;;;;;;;;;;;;;;;;;5047292;28;19916;-57
2022/09/16 15:57:15;;;;;;;;;;;;;;;;;;5046435;28;19905;-57
2022/09/16 15:59:41;;;;;;;;;;;;;;;;;;5046498;28;19966;-57
2022/09/16 16:02:07;;;;;;;;;;;;;;;;;;5047352;28;19909;-57
2022/09/16 16:04:33;;;;;;;;;;;;;;;;;;5046589;28;19909;-57
2022/09/16 16:06:59;;;;;;;;;;;;;;;;;;5047541;28;19936;-57
2022/09/16 16:09:28;;;;;;;;;;;;;;;;;;5051051;28;20294;-57
2022/09/16 16:11:57;;;;;;;;;;;;;;;;;;5047254;28;20244;-57
2022/09/16 16:14:23;;;;;;;;;;;;;;;;;;5047229;28;20356;-57
2022/09/16 16:16:50;;;;;;;;;;;;;;;;;;5046709;28;19908;-57
2022/09/16 16:19:16;;;;;;;;;;;;;;;;;;5045794;28;19912;-57
2022/09/16 16:21:44;;;;;;;;;;;;;;;;;;5046115;28;19975;-56
2022/09/16 16:24:10;;;;;;;;;;;;;;;;;;5045439;28;19908;-57
2022/09/16 16:26:37;;;;;;;;;;;;;;;;;;5045868;28;19917;-57
2022/09/16 16:29:04;;;;;;;;;;;;;;;;;;5045179;28;19947;-57
2022/09/16 16:31:31;;;;;;;;;;;;;;;;;;5044871;28;20395;-57
2022/09/16 16:33:57;;;;;;;;;;;;;;;;;;5044836;28;20384;-57
2022/09/16 16:36:23;;;;;;;;;;;;;;;;;;5043960;28;19966;-57
2022/09/16 16:38:49;;;;;;;;;;;;;;;;;;5046356;28;19916;-57
2022/09/16 16:41:15;;;;;;;;;;;;;;;;;;5046237;28;20342;-57